Time,TemperatureF,DewpointF,PressureIn,WindDirection,WindDirectionDegrees,WindSpeedMPH,WindSpeedGustMPH,Humidity,HourlyPrecipIn,Conditions,Clouds,dailyrainin,SoftwareType,DateUTC
2013-12-06 00:01:00,36.5,33.3,29.83,NNE,23,1.1,2.2,88,0.00,,,0.00,WUHU216HW,2013-12-06 05:01:00,
2013-12-06 00:06:00,36.4,33.1,29.84,NNW,338,0.0,2.2,88,0.00,,,0.00,WUHU216HW,2013-12-06 05:06:00,
2013-12-06 00:11:00,36.4,33.1,29.84,South,180,1.1,1.1,88,0.00,,,0.00,WUHU216HW,2013-12-06 05:11:00,
2013-12-06 00:16:00,36.7,33.5,29.84,SSW,203,0.0,1.3,88,0.00,,,0.00,WUHU216HW,2013-12-06 05:16:00,
2013-12-06 00:21:00,36.7,33.5,29.84,NNE,23,1.3,1.8,88,0.00,,,0.00,WUHU216HW,2013-12-06 05:21:00,
2013-12-06 00:26:00,36.7,33.8,29.84,NNE,23,0.9,2.5,89,0.00,,,0.00,WUHU216HW,2013-12-06 05:26:00,
2013-12-06 00:31:00,37.3,34.3,29.83,WNW,293,2.9,3.1,89,0.00,,,0.00,WUHU216HW,2013-12-06 05:31:00,
2013-12-06 00:36:00,37.4,34.5,29.83,NNW,338,5.6,5.6,89,0.00,,,0.00,WUHU216HW,2013-12-06 05:36:00,
2013-12-06 00:41:00,37.8,35.1,29.84,WSW,248,2.5,5.6,90,0.01,,,0.01,WUHU216HW,2013-12-06 05:41:00,
2013-12-06 00:46:00,37.8,35.1,29.83,SW,225,1.8,5.4,90,0.01,,,0.01,WUHU216HW,2013-12-06 05:46:00,
2013-12-06 00:51:00,37.8,35.1,29.84,WNW,293,1.6,2.9,90,0.01,,,0.01,WUHU216HW,2013-12-06 05:51:00,
2013-12-06 00:56:00,37.6,34.9,29.85,SW,225,1.6,1.8,90,0.01,,,0.01,WUHU216HW,2013-12-06 05:56:00,
2013-12-06 01:01:00,37.4,34.7,29.85,WSW,248,1.1,2.5,90,0.01,,,0.01,WUHU216HW,2013-12-06 06:01:00,
2013-12-06 01:06:00,37.6,34.9,29.86,West,270,1.1,2.5,90,0.01,,,0.01,WUHU216HW,2013-12-06 06:06:00,
2013-12-06 01:11:00,37.6,34.9,29.84,SSE,158,1.8,1.8,90,0.02,,,0.03,WUHU216HW,2013-12-06 06:11:00,
2013-12-06 01:16:00,37.6,34.9,29.84,West,270,1.3,1.8,90,0.02,,,0.03,WUHU216HW,2013-12-06 06:16:00,
2013-12-06 01:21:00,37.3,34.6,29.84,NNW,338,1.8,3.1,90,0.02,,,0.03,WUHU216HW,2013-12-06 06:21:00,
2013-12-06 01:26:00,37.4,34.7,29.84,NNE,23,0.9,3.1,90,0.02,,,0.03,WUHU216HW,2013-12-06 06:26:00,
2013-12-06 01:31:00,37.4,34.7,29.85,SSW,203,1.6,1.8,90,0.02,,,0.03,WUHU216HW,2013-12-06 06:31:00,
2013-12-06 01:36:00,37.4,34.7,29.84,SSE,158,0.9,2.5,90,0.01,,,0.03,WUHU216HW,2013-12-06 06:36:00,
2013-12-06 01:41:00,37.4,34.7,29.85,South,180,2.5,2.5,90,0.01,,,0.03,WUHU216HW,2013-12-06 06:41:00,
2013-12-06 01:46:00,37.3,34.6,29.86,WNW,293,1.1,2.5,90,0.01,,,0.03,WUHU216HW,2013-12-06 06:46:00,
2013-12-06 01:51:00,37.1,34.4,29.86,East,90,0.4,2.5,90,0.01,,,0.03,WUHU216HW,2013-12-06 06:51:00,
2013-12-06 01:57:00,37.1,34.4,29.86,SSE,158,0.7,2.0,90,0.01,,,0.03,WUHU216HW,2013-12-06 06:57:00,
2013-12-06 02:02:00,37.1,34.4,29.85,ENE,68,4.0,4.0,90,0.01,,,0.03,WUHU216HW,2013-12-06 07:02:00,
2013-12-06 02:07:00,37.3,34.8,29.85,NNE,23,1.1,4.0,91,0.01,,,0.03,WUHU216HW,2013-12-06 07:07:00,
2013-12-06 02:12:00,37.6,35.2,29.86,NE,45,2.2,4.3,91,0.00,,,0.03,WUHU216HW,2013-12-06 07:12:00,
2013-12-06 02:17:00,37.8,35.4,29.86,SW,225,2.2,4.3,91,0.00,,,0.03,WUHU216HW,2013-12-06 07:17:00,
2013-12-06 02:22:00,37.8,35.4,29.85,SW,225,1.8,4.3,91,0.00,,,0.03,WUHU216HW,2013-12-06 07:22:00,
2013-12-06 02:27:00,37.6,35.2,29.86,NW,315,1.3,1.8,91,0.00,,,0.03,WUHU216HW,2013-12-06 07:27:00,
2013-12-06 02:32:00,37.6,35.2,29.86,West,270,1.3,1.8,91,0.00,,,0.03,WUHU216HW,2013-12-06 07:32:00,
2013-12-06 02:37:00,37.4,35.0,29.86,NNW,338,0.0,1.8,91,0.00,,,0.03,WUHU216HW,2013-12-06 07:37:00,
2013-12-06 02:42:00,37.4,35.0,29.87,ESE,113,0.7,1.3,91,0.01,,,0.03,WUHU216HW,2013-12-06 07:42:00,
2013-12-06 02:47:00,37.4,35.0,29.87,NNW,338,0.4,2.0,91,0.02,,,0.05,WUHU216HW,2013-12-06 07:47:00,
2013-12-06 02:52:00,37.6,35.2,29.87,SSE,158,1.8,2.0,91,0.02,,,0.05,WUHU216HW,2013-12-06 07:52:00,
2013-12-06 02:57:00,37.6,35.2,29.86,South,180,0.7,3.4,91,0.03,,,0.05,WUHU216HW,2013-12-06 07:57:00,
2013-12-06 03:02:00,37.8,35.4,29.87,SSE,158,0.0,3.4,91,0.03,,,0.05,WUHU216HW,2013-12-06 08:02:00,
2013-12-06 03:07:00,37.8,35.4,29.87,NE,45,1.1,1.8,91,0.04,,,0.07,WUHU216HW,2013-12-06 08:07:00,
2013-12-06 03:12:00,37.8,35.4,29.87,ENE,68,1.8,1.8,91,0.05,,,0.08,WUHU216HW,2013-12-06 08:12:00,
2013-12-06 03:17:00,37.8,35.6,29.87,NNE,23,0.0,3.1,92,0.05,,,0.08,WUHU216HW,2013-12-06 08:17:00,
2013-12-06 03:22:00,37.8,35.4,29.87,WNW,293,0.2,3.1,91,0.05,,,0.08,WUHU216HW,2013-12-06 08:22:00,
2013-12-06 03:27:00,38.2,36.0,29.87,NNE,23,0.9,2.5,92,0.05,,,0.08,WUHU216HW,2013-12-06 08:27:00,
2013-12-06 03:32:00,38.5,36.1,29.86,SSW,203,0.4,1.6,91,0.05,,,0.08,WUHU216HW,2013-12-06 08:32:00,
2013-12-06 03:37:00,38.2,35.7,29.85,ENE,68,0.9,2.9,91,0.04,,,0.08,WUHU216HW,2013-12-06 08:37:00,
2013-12-06 03:42:00,38.0,35.6,29.87,WNW,293,0.0,2.9,91,0.05,,,0.09,WUHU216HW,2013-12-06 08:42:00,
2013-12-06 03:47:00,38.5,36.1,29.87,WSW,248,2.5,2.7,91,0.04,,,0.09,WUHU216HW,2013-12-06 08:47:00,
2013-12-06 03:52:00,38.3,35.9,29.87,SSW,203,0.4,2.9,91,0.04,,,0.09,WUHU216HW,2013-12-06 08:52:00,
2013-12-06 03:57:00,38.2,35.7,29.86,East,90,1.1,2.9,91,0.03,,,0.09,WUHU216HW,2013-12-06 08:57:00,
2013-12-06 04:02:00,38.0,35.6,29.86,East,90,0.0,1.8,91,0.02,,,0.09,WUHU216HW,2013-12-06 09:02:00,
2013-12-06 04:07:00,37.8,35.4,29.87,NNW,338,0.7,1.3,91,0.02,,,0.09,WUHU216HW,2013-12-06 09:07:00,
2013-12-06 04:12:00,37.6,35.2,29.87,NNW,338,0.9,2.9,91,0.01,,,0.09,WUHU216HW,2013-12-06 09:12:00,
2013-12-06 04:17:00,37.8,35.4,29.87,SE,135,0.7,2.9,91,0.02,,,0.10,WUHU216HW,2013-12-06 09:17:00,
2013-12-06 04:22:00,37.8,35.4,29.88,South,180,0.0,1.6,91,0.02,,,0.10,WUHU216HW,2013-12-06 09:22:00,
2013-12-06 04:27:00,38.3,36.2,29.89,NW,315,0.0,3.4,92,0.02,,,0.10,WUHU216HW,2013-12-06 09:27:00,
2013-12-06 04:32:00,38.5,36.1,29.89,WSW,248,1.8,3.4,91,0.02,,,0.10,WUHU216HW,2013-12-06 09:32:00,
2013-12-06 04:37:00,38.3,35.9,29.89,WSW,248,1.8,3.1,91,0.03,,,0.11,WUHU216HW,2013-12-06 09:37:00,
2013-12-06 04:42:00,38.3,35.9,29.89,North,0,0.4,3.1,91,0.03,,,0.12,WUHU216HW,2013-12-06 09:42:00,
2013-12-06 04:47:00,38.3,35.9,29.89,NE,45,0.7,1.8,91,0.04,,,0.13,WUHU216HW,2013-12-06 09:47:00,
2013-12-06 04:52:00,38.3,35.9,29.89,SSE,158,1.8,1.8,91,0.05,,,0.14,WUHU216HW,2013-12-06 09:52:00,
2013-12-06 04:57:00,38.3,35.9,29.88,East,90,0.7,1.8,91,0.05,,,0.14,WUHU216HW,2013-12-06 09:57:00,
2013-12-06 05:02:00,38.7,36.3,29.88,North,0,0.0,2.5,91,0.06,,,0.15,WUHU216HW,2013-12-06 10:02:00,
2013-12-06 05:07:00,39.2,37.4,29.88,North,0,0.4,2.5,93,0.07,,,0.16,WUHU216HW,2013-12-06 10:07:00,
2013-12-06 05:12:00,39.8,37.6,29.89,NNW,338,0.4,2.2,92,0.06,,,0.16,WUHU216HW,2013-12-06 10:12:00,
2013-12-06 05:17:00,39.8,37.9,29.89,NNE,23,1.1,2.2,93,0.06,,,0.16,WUHU216HW,2013-12-06 10:17:00,
2013-12-06 05:22:00,40.1,38.3,29.89,NNW,338,2.2,3.8,93,0.07,,,0.17,WUHU216HW,2013-12-06 10:22:00,
2013-12-06 05:27:00,40.0,37.8,29.90,NNW,338,1.6,6.3,92,0.08,,,0.18,WUHU216HW,2013-12-06 10:27:00,
2013-12-06 05:32:00,39.8,37.4,29.91,NNW,338,0.0,6.3,91,0.07,,,0.18,WUHU216HW,2013-12-06 10:32:00,
2013-12-06 05:37:00,39.8,37.4,29.91,ENE,68,0.2,4.0,91,0.07,,,0.19,WUHU216HW,2013-12-06 10:37:00,
2013-12-06 05:42:00,39.4,37.0,29.92,NW,315,2.5,4.0,91,0.06,,,0.19,WUHU216HW,2013-12-06 10:42:00,
2013-12-06 05:47:00,39.2,36.8,29.92,NNW,338,1.8,2.5,91,0.07,,,0.20,WUHU216HW,2013-12-06 10:47:00,
2013-12-06 05:52:00,39.2,36.8,29.93,WSW,248,0.4,2.5,91,0.06,,,0.20,WUHU216HW,2013-12-06 10:52:00,
2013-12-06 05:57:00,39.1,36.6,29.93,West,270,0.4,2.5,91,0.06,,,0.21,WUHU216HW,2013-12-06 10:57:00,
2013-12-06 06:02:00,38.9,36.2,29.92,North,0,0.4,3.4,90,0.06,,,0.21,WUHU216HW,2013-12-06 11:02:00,
2013-12-06 06:07:00,38.5,35.8,29.92,NNW,338,0.9,3.4,90,0.06,,,0.22,WUHU216HW,2013-12-06 11:07:00,
2013-12-06 06:12:00,38.5,36.1,29.93,NNE,23,0.4,2.5,91,0.06,,,0.22,WUHU216HW,2013-12-06 11:12:00,
2013-12-06 06:17:00,38.5,36.1,29.93,North,0,0.0,2.5,91,0.06,,,0.23,WUHU216HW,2013-12-06 11:17:00,
2013-12-06 06:22:00,38.5,36.1,29.92,ESE,113,0.2,1.8,91,0.06,,,0.23,WUHU216HW,2013-12-06 11:22:00,
2013-12-06 06:27:00,38.3,35.9,29.92,NE,45,2.0,2.0,91,0.05,,,0.23,WUHU216HW,2013-12-06 11:27:00,
2013-12-06 06:32:00,38.2,35.7,29.92,NW,315,0.0,2.0,91,0.05,,,0.23,WUHU216HW,2013-12-06 11:32:00,
2013-12-06 06:37:00,37.8,35.4,29.91,NW,315,0.4,2.0,91,0.05,,,0.24,WUHU216HW,2013-12-06 11:37:00,
2013-12-06 06:42:00,37.8,35.4,29.90,NNE,23,0.0,0.7,91,0.05,,,0.24,WUHU216HW,2013-12-06 11:42:00,
2013-12-06 06:47:00,37.6,35.2,29.90,SE,135,1.3,1.3,91,0.04,,,0.24,WUHU216HW,2013-12-06 11:47:00,
2013-12-06 06:52:00,37.4,35.0,29.91,ESE,113,1.3,2.0,91,0.03,,,0.24,WUHU216HW,2013-12-06 11:52:00,
2013-12-06 06:57:00,37.3,34.6,29.92,East,90,0.2,2.0,90,0.03,,,0.24,WUHU216HW,2013-12-06 11:57:00,
2013-12-06 07:02:00,37.3,34.6,29.91,ESE,113,0.9,1.3,90,0.03,,,0.24,WUHU216HW,2013-12-06 12:02:00,
2013-12-06 07:07:00,37.1,34.4,29.91,East,90,1.1,1.3,90,0.02,,,0.24,WUHU216HW,2013-12-06 12:07:00,
2013-12-06 07:12:00,36.9,34.2,29.91,ESE,113,1.6,2.2,90,0.03,,,0.25,WUHU216HW,2013-12-06 12:12:00,
2013-12-06 07:17:00,36.9,34.2,29.93,NE,45,0.0,2.2,90,0.02,,,0.25,WUHU216HW,2013-12-06 12:17:00,
2013-12-06 07:22:00,37.1,34.4,29.93,WNW,293,0.2,1.6,90,0.02,,,0.25,WUHU216HW,2013-12-06 12:22:00,
2013-12-06 07:27:00,37.1,34.4,29.93,NNW,338,0.0,0.7,90,0.02,,,0.25,WUHU216HW,2013-12-06 12:27:00,
2013-12-06 07:32:00,36.9,34.2,29.92,ENE,68,1.3,1.3,90,0.01,,,0.25,WUHU216HW,2013-12-06 12:32:00,
2013-12-06 07:37:00,36.5,33.8,29.92,ENE,68,1.8,3.4,90,0.01,,,0.25,WUHU216HW,2013-12-06 12:37:00,
2013-12-06 07:42:00,36.4,33.7,29.93,NNE,23,0.2,3.4,90,0.01,,,0.25,WUHU216HW,2013-12-06 12:42:00,
2013-12-06 07:47:00,36.4,33.7,29.94,ENE,68,0.0,2.7,90,0.01,,,0.25,WUHU216HW,2013-12-06 12:47:00,
2013-12-06 07:52:00,36.5,33.8,29.94,SE,135,1.3,1.3,90,0.01,,,0.25,WUHU216HW,2013-12-06 12:52:00,
2013-12-06 07:57:00,36.5,33.8,29.94,NE,45,0.4,1.8,90,0.01,,,0.25,WUHU216HW,2013-12-06 12:57:00,
2013-12-06 08:02:00,36.4,33.7,29.93,ENE,68,1.8,2.0,90,0.01,,,0.25,WUHU216HW,2013-12-06 13:02:00,
2013-12-06 08:07:00,36.2,33.5,29.94,ENE,68,1.6,2.0,90,0.01,,,0.25,WUHU216HW,2013-12-06 13:07:00,
2013-12-06 08:12:00,35.8,33.1,29.94,East,90,1.1,1.8,90,0.00,,,0.25,WUHU216HW,2013-12-06 13:12:00,
2013-12-06 08:17:00,36.0,33.3,29.93,SE,135,1.1,1.6,90,0.00,,,0.25,WUHU216HW,2013-12-06 13:17:00,
2013-12-06 08:22:00,36.2,33.5,29.94,West,270,0.9,1.6,90,0.00,,,0.25,WUHU216HW,2013-12-06 13:22:00,
2013-12-06 08:27:00,36.4,33.7,29.94,SSW,203,0.4,1.1,90,0.00,,,0.25,WUHU216HW,2013-12-06 13:27:00,
2013-12-06 08:32:00,36.4,33.7,29.94,WNW,293,1.1,1.1,90,0.00,,,0.25,WUHU216HW,2013-12-06 13:32:00,
2013-12-06 08:37:00,36.4,33.7,29.95,WSW,248,0.7,1.1,90,0.00,,,0.25,WUHU216HW,2013-12-06 13:37:00,
2013-12-06 08:42:00,36.4,33.7,29.95,West,270,0.7,1.1,90,0.00,,,0.25,WUHU216HW,2013-12-06 13:42:00,
2013-12-06 08:47:00,36.5,33.8,29.96,WSW,248,1.3,1.3,90,0.00,,,0.25,WUHU216HW,2013-12-06 13:47:00,
2013-12-06 08:52:00,36.7,34.0,29.96,SW,225,2.2,2.2,90,0.00,,,0.25,WUHU216HW,2013-12-06 13:52:00,
2013-12-06 08:57:00,36.9,34.2,29.95,SSW,203,2.9,3.1,90,0.00,,,0.25,WUHU216HW,2013-12-06 13:57:00,
2013-12-06 09:02:00,36.9,34.2,29.95,SSW,203,1.8,3.6,90,0.00,,,0.25,WUHU216HW,2013-12-06 14:02:00,
2013-12-06 09:08:00,37.1,34.4,29.94,SSE,158,2.5,3.6,90,0.00,,,0.25,WUHU216HW,2013-12-06 14:08:00,
2013-12-06 09:13:00,37.4,34.7,29.95,South,180,4.3,4.9,90,0.00,,,0.25,WUHU216HW,2013-12-06 14:13:00,
2013-12-06 09:18:00,37.4,34.7,29.96,SSW,203,2.0,4.9,90,0.00,,,0.25,WUHU216HW,2013-12-06 14:18:00,
2013-12-06 09:23:00,37.4,34.7,29.97,West,270,6.9,6.9,90,0.00,,,0.25,WUHU216HW,2013-12-06 14:23:00,
2013-12-06 09:28:00,37.4,35.0,29.97,WSW,248,2.9,6.9,91,0.00,,,0.25,WUHU216HW,2013-12-06 14:28:00,
2013-12-06 09:33:00,37.4,33.8,29.97,West,270,5.4,5.8,87,0.00,,,0.25,WUHU216HW,2013-12-06 14:33:00,
2013-12-06 09:38:00,37.4,34.5,29.97,West,270,1.8,7.2,89,0.00,,,0.25,WUHU216HW,2013-12-06 14:38:00,
2013-12-06 09:43:00,37.4,33.8,29.96,WSW,248,5.1,7.2,87,0.00,,,0.25,WUHU216HW,2013-12-06 14:43:00,
2013-12-06 09:48:00,37.4,33.6,29.97,SW,225,2.5,5.1,86,0.00,,,0.25,WUHU216HW,2013-12-06 14:48:00,
2013-12-06 09:53:00,37.6,33.8,29.96,SW,225,0.7,5.1,86,0.00,,,0.25,WUHU216HW,2013-12-06 14:53:00,
2013-12-06 09:58:00,37.6,33.8,29.97,NW,315,1.1,2.9,86,0.00,,,0.25,WUHU216HW,2013-12-06 14:58:00,
2013-12-06 10:03:00,37.4,33.8,29.95,South,180,1.3,1.8,87,0.00,,,0.25,WUHU216HW,2013-12-06 15:03:00,
2013-12-06 10:08:00,37.6,33.8,29.96,NNE,23,1.6,3.4,86,0.00,,,0.25,WUHU216HW,2013-12-06 15:08:00,
2013-12-06 10:13:00,37.4,32.1,29.96,SW,225,4.7,6.3,81,0.00,,,0.25,WUHU216HW,2013-12-06 15:13:00,
2013-12-06 10:18:00,37.4,30.9,29.95,WSW,248,4.9,8.5,77,0.00,,,0.25,WUHU216HW,2013-12-06 15:18:00,
2013-12-06 10:23:00,37.6,31.4,29.95,SSW,203,4.7,8.5,78,0.00,,,0.25,WUHU216HW,2013-12-06 15:23:00,
2013-12-06 10:28:00,37.8,31.9,29.97,SW,225,0.4,7.2,79,0.00,,,0.25,WUHU216HW,2013-12-06 15:28:00,
2013-12-06 10:33:00,37.8,32.2,29.96,SSE,158,2.7,4.7,80,0.00,,,0.25,WUHU216HW,2013-12-06 15:33:00,
2013-12-06 10:38:00,37.8,32.5,29.97,SSE,158,0.4,2.7,81,0.00,,,0.25,WUHU216HW,2013-12-06 15:38:00,
2013-12-06 10:43:00,37.8,32.8,29.96,SW,225,1.6,2.7,82,0.00,,,0.25,WUHU216HW,2013-12-06 15:43:00,
2013-12-06 10:48:00,37.8,32.8,29.96,NW,315,0.0,2.2,82,0.00,,,0.25,WUHU216HW,2013-12-06 15:48:00,
2013-12-06 10:53:00,37.3,32.2,29.97,NNW,338,1.1,2.2,82,0.00,,,0.25,WUHU216HW,2013-12-06 15:53:00,
2013-12-06 10:58:00,37.1,32.4,29.96,West,270,0.0,2.2,83,0.00,,,0.25,WUHU216HW,2013-12-06 15:58:00,
2013-12-06 11:03:00,37.3,32.0,29.95,WSW,248,4.0,4.9,81,0.00,,,0.25,WUHU216HW,2013-12-06 16:03:00,
2013-12-06 11:08:00,37.4,31.5,29.95,SSW,203,2.0,8.5,79,0.00,,,0.25,WUHU216HW,2013-12-06 16:08:00,
2013-12-06 11:13:00,37.4,31.5,29.95,WNW,293,6.3,8.5,79,0.00,,,0.25,WUHU216HW,2013-12-06 16:13:00,
2013-12-06 11:18:00,37.4,30.6,29.95,WSW,248,3.4,6.7,76,0.00,,,0.25,WUHU216HW,2013-12-06 16:18:00,
2013-12-06 11:23:00,37.4,30.9,29.94,South,180,1.3,6.3,77,0.00,,,0.25,WUHU216HW,2013-12-06 16:23:00,
2013-12-06 11:28:00,37.3,30.7,29.94,South,180,1.8,5.4,77,0.00,,,0.25,WUHU216HW,2013-12-06 16:28:00,
2013-12-06 11:33:00,37.3,30.4,29.94,WSW,248,1.6,5.1,76,0.00,,,0.25,WUHU216HW,2013-12-06 16:33:00,
2013-12-06 11:38:00,37.3,30.4,29.95,West,270,3.4,6.9,76,0.00,,,0.25,WUHU216HW,2013-12-06 16:38:00,
2013-12-06 11:43:00,37.3,29.1,29.95,WSW,248,5.6,9.2,72,0.00,,,0.25,WUHU216HW,2013-12-06 16:43:00,
2013-12-06 11:48:00,37.1,29.5,29.94,WSW,248,3.4,9.2,74,0.00,,,0.25,WUHU216HW,2013-12-06 16:48:00,
2013-12-06 11:53:00,37.1,29.5,29.95,West,270,4.3,6.9,74,0.00,,,0.25,WUHU216HW,2013-12-06 16:53:00,
2013-12-06 11:58:00,37.1,29.9,29.95,WSW,248,1.6,6.3,75,0.00,,,0.25,WUHU216HW,2013-12-06 16:58:00,
2013-12-06 12:03:00,37.1,29.9,29.95,WNW,293,2.7,6.3,75,0.00,,,0.25,WUHU216HW,2013-12-06 17:03:00,
2013-12-06 12:08:00,37.3,29.7,29.96,WSW,248,3.4,5.8,74,0.00,,,0.25,WUHU216HW,2013-12-06 17:08:00,
2013-12-06 12:13:00,37.4,29.9,29.96,West,270,5.8,5.8,74,0.00,,,0.25,WUHU216HW,2013-12-06 17:13:00,
2013-12-06 12:18:00,37.4,30.2,29.95,NW,315,2.5,5.8,75,0.00,,,0.25,WUHU216HW,2013-12-06 17:18:00,
2013-12-06 12:23:00,37.8,30.9,29.96,WSW,248,2.7,5.8,76,0.00,,,0.25,WUHU216HW,2013-12-06 17:23:00,
2013-12-06 12:28:00,37.8,30.2,29.97,WSW,248,2.5,3.4,74,0.00,,,0.25,WUHU216HW,2013-12-06 17:28:00,
2013-12-06 12:33:00,37.8,30.2,29.97,WSW,248,1.1,3.4,74,0.00,,,0.25,WUHU216HW,2013-12-06 17:33:00,
2013-12-06 12:38:00,37.8,30.6,29.97,West,270,0.9,5.4,75,0.00,,,0.25,WUHU216HW,2013-12-06 17:38:00,
2013-12-06 12:43:00,37.8,30.9,29.97,WNW,293,1.6,5.4,76,0.00,,,0.25,WUHU216HW,2013-12-06 17:43:00,
2013-12-06 12:48:00,38.0,30.8,29.97,West,270,1.1,4.5,75,0.00,,,0.25,WUHU216HW,2013-12-06 17:48:00,
2013-12-06 12:53:00,38.0,30.4,29.97,NW,315,3.4,3.8,74,0.00,,,0.25,WUHU216HW,2013-12-06 17:53:00,
2013-12-06 12:58:00,38.0,30.4,29.96,West,270,4.3,4.3,74,0.00,,,0.25,WUHU216HW,2013-12-06 17:58:00,
2013-12-06 13:03:00,37.8,29.6,29.96,SW,225,2.0,7.6,72,0.00,,,0.25,WUHU216HW,2013-12-06 18:03:00,
2013-12-06 13:08:00,38.0,30.4,29.96,West,270,2.9,7.6,74,0.00,,,0.25,WUHU216HW,2013-12-06 18:08:00,
2013-12-06 13:13:00,38.2,30.6,29.96,West,270,2.0,4.5,74,0.00,,,0.25,WUHU216HW,2013-12-06 18:13:00,
2013-12-06 13:18:00,38.2,30.2,29.97,West,270,1.3,5.8,73,0.00,,,0.25,WUHU216HW,2013-12-06 18:18:00,
2013-12-06 13:23:00,38.3,30.8,29.95,WSW,248,1.8,5.8,74,0.00,,,0.25,WUHU216HW,2013-12-06 18:23:00,
2013-12-06 13:28:00,38.5,31.0,29.96,NNW,338,0.0,2.5,74,0.00,,,0.25,WUHU216HW,2013-12-06 18:28:00,
2013-12-06 13:33:00,38.5,31.0,29.96,WSW,248,2.2,2.5,74,0.00,,,0.25,WUHU216HW,2013-12-06 18:33:00,
2013-12-06 13:38:00,38.5,30.6,29.96,SW,225,0.9,2.5,73,0.00,,,0.25,WUHU216HW,2013-12-06 18:38:00,
2013-12-06 13:43:00,38.5,30.6,29.96,SSW,203,1.6,2.5,73,0.00,,,0.25,WUHU216HW,2013-12-06 18:43:00,
2013-12-06 13:49:00,38.3,30.1,29.96,SW,225,3.4,6.0,72,0.00,,,0.25,WUHU216HW,2013-12-06 18:49:00,
2013-12-06 13:54:00,37.8,29.6,29.97,WSW,248,0.9,6.0,72,0.00,,,0.25,WUHU216HW,2013-12-06 18:54:00,
2013-12-06 13:59:00,37.8,30.0,29.97,West,270,2.7,4.7,73,0.00,,,0.25,WUHU216HW,2013-12-06 18:59:00,
2013-12-06 14:04:00,37.8,30.2,29.97,West,270,3.6,5.1,74,0.00,,,0.25,WUHU216HW,2013-12-06 19:04:00,
2013-12-06 14:09:00,37.8,30.2,29.97,West,270,2.9,5.1,74,0.00,,,0.25,WUHU216HW,2013-12-06 19:09:00,
2013-12-06 14:14:00,37.8,30.0,29.96,WNW,293,2.0,4.9,73,0.00,,,0.25,WUHU216HW,2013-12-06 19:14:00,
2013-12-06 14:19:00,37.8,30.2,29.97,SW,225,1.8,2.9,74,0.00,,,0.25,WUHU216HW,2013-12-06 19:19:00,
2013-12-06 14:24:00,37.8,30.2,29.97,WSW,248,2.5,2.9,74,0.00,,,0.25,WUHU216HW,2013-12-06 19:24:00,
2013-12-06 14:29:00,37.8,30.2,29.97,SW,225,2.5,2.9,74,0.00,,,0.25,WUHU216HW,2013-12-06 19:29:00,
2013-12-06 14:34:00,37.8,30.2,29.97,WSW,248,1.8,2.9,74,0.00,,,0.25,WUHU216HW,2013-12-06 19:34:00,
2013-12-06 14:39:00,37.8,30.2,29.97,SSW,203,3.1,3.6,74,0.00,,,0.25,WUHU216HW,2013-12-06 19:39:00,
2013-12-06 14:44:00,37.8,30.2,29.97,WSW,248,0.9,4.7,74,0.00,,,0.25,WUHU216HW,2013-12-06 19:44:00,
2013-12-06 14:49:00,37.8,30.2,29.97,SSW,203,1.1,4.7,74,0.00,,,0.25,WUHU216HW,2013-12-06 19:49:00,
2013-12-06 14:54:00,37.8,30.2,29.98,SW,225,3.4,3.4,74,0.00,,,0.25,WUHU216HW,2013-12-06 19:54:00,
2013-12-06 14:59:00,37.6,30.1,29.97,SW,225,1.8,3.4,74,0.00,,,0.25,WUHU216HW,2013-12-06 19:59:00,
2013-12-06 15:04:00,37.6,30.1,29.98,SW,225,1.8,3.4,74,0.00,,,0.25,WUHU216HW,2013-12-06 20:04:00,
2013-12-06 15:09:00,37.6,30.1,29.98,WSW,248,1.8,2.9,74,0.00,,,0.25,WUHU216HW,2013-12-06 20:09:00,
2013-12-06 15:14:00,37.4,29.9,29.98,WSW,248,0.7,2.9,74,0.00,,,0.25,WUHU216HW,2013-12-06 20:14:00,
2013-12-06 15:19:00,37.4,29.9,29.98,WNW,293,2.5,3.4,74,0.00,,,0.25,WUHU216HW,2013-12-06 20:19:00,
2013-12-06 15:24:00,37.4,29.9,29.98,West,270,2.2,3.4,74,0.00,,,0.25,WUHU216HW,2013-12-06 20:24:00,
2013-12-06 15:29:00,37.1,29.5,29.98,West,270,1.6,3.4,74,0.00,,,0.25,WUHU216HW,2013-12-06 20:29:00,
2013-12-06 15:34:00,37.1,29.5,29.98,WSW,248,2.0,2.5,74,0.00,,,0.25,WUHU216HW,2013-12-06 20:34:00,
2013-12-06 15:39:00,36.7,29.2,29.98,WSW,248,3.4,3.4,74,0.00,,,0.25,WUHU216HW,2013-12-06 20:39:00,
2013-12-06 15:44:00,36.4,28.2,29.98,NNW,338,4.3,6.7,72,0.00,,,0.25,WUHU216HW,2013-12-06 20:44:00,
2013-12-06 15:49:00,36.2,28.0,29.97,WSW,248,1.1,6.7,72,0.00,,,0.25,WUHU216HW,2013-12-06 20:49:00,
2013-12-06 15:54:00,36.0,28.2,29.97,NW,315,2.7,5.4,73,0.00,,,0.25,WUHU216HW,2013-12-06 20:54:00,
2013-12-06 15:59:00,35.6,27.8,29.98,WNW,293,2.5,6.0,73,0.00,,,0.25,WUHU216HW,2013-12-06 20:59:00,
2013-12-06 16:04:00,35.6,27.8,29.99,SW,225,1.8,6.0,73,0.00,,,0.25,WUHU216HW,2013-12-06 21:04:00,
2013-12-06 16:10:00,35.6,27.8,29.99,West,270,1.1,4.3,73,0.00,,,0.25,WUHU216HW,2013-12-06 21:10:00,
2013-12-06 16:15:00,35.5,27.6,29.99,West,270,0.4,4.0,73,0.00,,,0.25,WUHU216HW,2013-12-06 21:15:00,
2013-12-06 16:20:00,35.3,27.5,30.00,WSW,248,1.8,3.4,73,0.00,,,0.25,WUHU216HW,2013-12-06 21:20:00,
2013-12-06 16:25:00,35.3,27.5,30.00,WNW,293,4.0,4.0,73,0.00,,,0.25,WUHU216HW,2013-12-06 21:25:00,
2013-12-06 16:30:00,35.3,27.5,30.00,West,270,2.2,4.0,73,0.00,,,0.25,WUHU216HW,2013-12-06 21:30:00,
2013-12-06 16:35:00,35.3,27.1,29.99,WNW,293,2.0,4.0,72,0.00,,,0.25,WUHU216HW,2013-12-06 21:35:00,
2013-12-06 16:40:00,35.1,26.9,30.00,West,270,0.7,3.4,72,0.00,,,0.25,WUHU216HW,2013-12-06 21:40:00,
2013-12-06 16:45:00,35.1,26.9,30.00,SW,225,0.2,2.5,72,0.00,,,0.25,WUHU216HW,2013-12-06 21:45:00,
2013-12-06 16:50:00,35.1,26.9,30.00,West,270,1.3,2.5,72,0.00,,,0.25,WUHU216HW,2013-12-06 21:50:00,
2013-12-06 16:55:00,35.1,26.7,30.00,WSW,248,0.4,2.7,71,0.00,,,0.25,WUHU216HW,2013-12-06 21:55:00,
2013-12-06 17:00:00,34.9,26.7,30.00,WNW,293,0.7,2.7,72,0.00,,,0.25,WUHU216HW,2013-12-06 22:00:00,
2013-12-06 17:05:00,34.9,26.5,30.00,WNW,293,1.6,2.9,71,0.00,,,0.25,WUHU216HW,2013-12-06 22:05:00,
2013-12-06 17:10:00,34.7,26.3,30.01,NW,315,0.9,3.8,71,0.00,,,0.25,WUHU216HW,2013-12-06 22:10:00,
2013-12-06 17:15:00,34.7,26.3,30.00,SW,225,2.2,3.8,71,0.00,,,0.25,WUHU216HW,2013-12-06 22:15:00,
2013-12-06 17:20:00,34.7,26.3,30.01,WSW,248,3.6,5.4,71,0.00,,,0.25,WUHU216HW,2013-12-06 22:20:00,
2013-12-06 17:25:00,34.9,26.1,30.00,NW,315,1.8,5.4,70,0.00,,,0.25,WUHU216HW,2013-12-06 22:25:00,
2013-12-06 17:30:00,34.9,25.7,30.00,WSW,248,2.5,5.1,69,0.00,,,0.25,WUHU216HW,2013-12-06 22:30:00,
2013-12-06 17:35:00,34.7,25.9,30.00,North,0,1.1,4.0,70,0.00,,,0.25,WUHU216HW,2013-12-06 22:35:00,
2013-12-06 17:40:00,34.6,25.7,30.00,West,270,3.4,4.0,70,0.00,,,0.25,WUHU216HW,2013-12-06 22:40:00,
2013-12-06 17:45:00,34.6,25.4,30.00,WSW,248,3.1,4.0,69,0.00,,,0.25,WUHU216HW,2013-12-06 22:45:00,
2013-12-06 17:50:00,34.7,25.6,30.00,WSW,248,1.1,3.4,69,0.00,,,0.25,WUHU216HW,2013-12-06 22:50:00,
2013-12-06 17:55:00,34.6,25.7,30.00,WSW,248,1.8,2.9,70,0.00,,,0.25,WUHU216HW,2013-12-06 22:55:00,
2013-12-06 18:00:00,34.6,25.7,30.02,WNW,293,1.1,3.4,70,0.00,,,0.25,WUHU216HW,2013-12-06 23:00:00,
2013-12-06 18:05:00,34.6,25.7,30.01,West,270,0.2,4.5,70,0.00,,,0.25,WUHU216HW,2013-12-06 23:05:00,
2013-12-06 18:10:00,34.4,25.2,30.02,NW,315,3.4,4.5,69,0.00,,,0.25,WUHU216HW,2013-12-06 23:10:00,
2013-12-06 18:15:00,34.4,25.2,30.02,NNW,338,3.4,4.3,69,0.00,,,0.25,WUHU216HW,2013-12-06 23:15:00,
2013-12-06 18:20:00,34.4,25.2,30.02,West,270,1.1,4.3,69,0.00,,,0.25,WUHU216HW,2013-12-06 23:20:00,
2013-12-06 18:25:00,34.4,25.6,30.02,WSW,248,1.6,3.4,70,0.00,,,0.25,WUHU216HW,2013-12-06 23:25:00,
2013-12-06 18:30:00,34.2,25.4,30.01,WNW,293,1.6,3.1,70,0.00,,,0.25,WUHU216HW,2013-12-06 23:30:00,
2013-12-06 18:35:00,34.2,25.0,30.01,SW,225,1.8,3.1,69,0.00,,,0.25,WUHU216HW,2013-12-06 23:35:00,
2013-12-06 18:40:00,34.2,25.4,30.02,West,270,3.6,6.0,70,0.00,,,0.25,WUHU216HW,2013-12-06 23:40:00,
2013-12-06 18:45:00,34.2,25.0,30.02,NW,315,2.2,6.0,69,0.00,,,0.25,WUHU216HW,2013-12-06 23:45:00,
2013-12-06 18:50:00,34.4,25.6,30.02,West,270,0.4,5.1,70,0.00,,,0.25,WUHU216HW,2013-12-06 23:50:00,
2013-12-06 18:55:00,34.2,25.4,30.02,NNW,338,0.4,4.0,70,0.00,,,0.25,WUHU216HW,2013-12-06 23:55:00,
2013-12-06 19:00:00,34.2,25.0,30.03,WSW,248,1.8,5.1,69,0.00,,,0.25,WUHU216HW,2013-12-07 00:00:00,
2013-12-06 19:05:00,34.2,25.4,30.03,West,270,1.1,5.1,70,0.00,,,0.25,WUHU216HW,2013-12-07 00:05:00,
2013-12-06 19:10:00,34.2,25.4,30.03,SW,225,1.8,3.6,70,0.00,,,0.25,WUHU216HW,2013-12-07 00:10:00,
2013-12-06 19:15:00,34.2,25.0,30.04,NW,315,0.7,4.5,69,0.00,,,0.25,WUHU216HW,2013-12-07 00:15:00,
2013-12-06 19:20:00,34.2,25.0,30.04,WSW,248,0.7,4.5,69,0.00,,,0.25,WUHU216HW,2013-12-07 00:20:00,
2013-12-06 19:25:00,34.2,25.4,30.05,NW,315,2.0,3.4,70,0.00,,,0.25,WUHU216HW,2013-12-07 00:25:00,
2013-12-06 19:30:00,34.0,24.8,30.05,NW,315,1.1,4.9,69,0.00,,,0.25,WUHU216HW,2013-12-07 00:30:00,
2013-12-06 19:35:00,33.8,24.7,30.04,WNW,293,1.8,4.9,69,0.00,,,0.25,WUHU216HW,2013-12-07 00:35:00,
2013-12-06 19:40:00,33.8,25.0,30.04,WSW,248,1.1,3.1,70,0.00,,,0.25,WUHU216HW,2013-12-07 00:40:00,
2013-12-06 19:45:00,33.8,25.0,30.03,North,0,0.4,3.8,70,0.00,,,0.25,WUHU216HW,2013-12-07 00:45:00,
2013-12-06 19:50:00,33.5,24.7,30.03,WNW,293,2.0,3.8,70,0.00,,,0.25,WUHU216HW,2013-12-07 00:50:00,
2013-12-06 19:55:00,33.5,24.7,30.04,NW,315,1.1,3.4,70,0.00,,,0.25,WUHU216HW,2013-12-07 00:55:00,
2013-12-06 20:00:00,33.7,24.8,30.04,WSW,248,1.6,3.4,70,0.00,,,0.25,WUHU216HW,2013-12-07 01:00:00,
2013-12-06 20:05:00,33.7,24.8,30.05,WSW,248,0.2,1.8,70,0.00,,,0.25,WUHU216HW,2013-12-07 01:05:00,
2013-12-06 20:10:00,33.7,24.8,30.05,SW,225,0.0,1.8,70,0.00,,,0.25,WUHU216HW,2013-12-07 01:10:00,
2013-12-06 20:15:00,33.7,24.8,30.05,SSW,203,2.5,3.4,70,0.00,,,0.25,WUHU216HW,2013-12-07 01:15:00,
2013-12-06 20:20:00,33.5,24.7,30.05,WNW,293,0.0,3.4,70,0.00,,,0.25,WUHU216HW,2013-12-07 01:20:00,
2013-12-06 20:25:00,33.5,24.7,30.04,NNE,23,0.9,1.8,70,0.00,,,0.25,WUHU216HW,2013-12-07 01:25:00,
2013-12-06 20:30:00,33.5,25.0,30.04,East,90,0.7,1.1,71,0.00,,,0.25,WUHU216HW,2013-12-07 01:30:00,
2013-12-06 20:35:00,33.3,24.8,30.04,ESE,113,0.2,1.6,71,0.00,,,0.25,WUHU216HW,2013-12-07 01:35:00,
2013-12-06 20:40:00,33.1,25.0,30.04,NE,45,1.1,1.6,72,0.00,,,0.25,WUHU216HW,2013-12-07 01:40:00,
2013-12-06 20:45:00,32.9,24.8,30.05,SW,225,1.1,1.1,72,0.00,,,0.25,WUHU216HW,2013-12-07 01:45:00,
2013-12-06 20:50:00,33.1,25.0,30.05,SW,225,0.4,1.3,72,0.00,,,0.25,WUHU216HW,2013-12-07 01:50:00,
2013-12-06 20:55:00,32.9,25.2,30.06,North,0,0.4,1.3,73,0.00,,,0.25,WUHU216HW,2013-12-07 01:55:00,
2013-12-06 21:00:00,32.8,25.4,30.07,NNW,338,0.0,0.9,74,0.00,,,0.25,WUHU216HW,2013-12-07 02:00:00,
2013-12-06 21:05:00,32.8,25.0,30.07,WNW,293,0.9,2.2,73,0.00,,,0.25,WUHU216HW,2013-12-07 02:05:00,
2013-12-06 21:10:00,33.1,24.4,30.07,WSW,248,1.8,5.4,70,0.00,,,0.25,WUHU216HW,2013-12-07 02:10:00,
2013-12-06 21:15:00,33.1,24.0,30.07,SW,225,1.1,5.4,69,0.00,,,0.25,WUHU216HW,2013-12-07 02:15:00,
2013-12-06 21:20:00,33.1,24.4,30.07,NNE,23,0.2,3.4,70,0.00,,,0.25,WUHU216HW,2013-12-07 02:20:00,
2013-12-06 21:25:00,33.1,23.7,30.07,WSW,248,3.4,4.7,68,0.00,,,0.25,WUHU216HW,2013-12-07 02:25:00,
2013-12-06 21:30:00,33.3,24.2,30.07,West,270,1.8,4.7,69,0.00,,,0.25,WUHU216HW,2013-12-07 02:30:00,
2013-12-06 21:35:00,33.3,24.2,30.07,South,180,1.3,3.4,69,0.00,,,0.25,WUHU216HW,2013-12-07 02:35:00,
2013-12-06 21:40:00,33.3,24.6,30.07,SSW,203,1.6,2.0,70,0.00,,,0.25,WUHU216HW,2013-12-07 02:40:00,
2013-12-06 21:45:00,33.1,24.4,30.07,SSE,158,0.0,2.0,70,0.00,,,0.25,WUHU216HW,2013-12-07 02:45:00,
2013-12-06 21:50:00,33.1,24.0,30.07,SSW,203,1.6,2.0,69,0.00,,,0.25,WUHU216HW,2013-12-07 02:50:00,
2013-12-06 21:55:00,33.1,24.0,30.08,WSW,248,0.4,3.4,69,0.00,,,0.25,WUHU216HW,2013-12-07 02:55:00,
2013-12-06 22:01:00,33.1,24.0,30.08,WNW,293,0.4,3.4,69,0.00,,,0.25,WUHU216HW,2013-12-07 03:01:00,
2013-12-06 22:06:00,33.1,24.4,30.07,SW,225,0.0,1.1,70,0.00,,,0.25,WUHU216HW,2013-12-07 03:06:00,
2013-12-06 22:11:00,33.1,24.4,30.07,SW,225,0.0,0.9,70,0.00,,,0.25,WUHU216HW,2013-12-07 03:11:00,
2013-12-06 22:16:00,32.9,24.2,30.07,SW,225,0.0,0.0,70,0.00,,,0.25,WUHU216HW,2013-12-07 03:16:00,
2013-12-06 22:21:00,32.8,24.0,30.06,ENE,68,0.0,0.9,70,0.00,,,0.25,WUHU216HW,2013-12-07 03:21:00,
2013-12-06 22:26:00,32.6,23.9,30.06,NNW,338,0.4,0.9,70,0.00,,,0.25,WUHU216HW,2013-12-07 03:26:00,
2013-12-06 22:31:00,32.6,24.2,30.06,NNW,338,0.0,0.4,71,0.00,,,0.25,WUHU216HW,2013-12-07 03:31:00,
2013-12-06 22:36:00,32.6,24.2,30.05,West,270,0.0,0.7,71,0.00,,,0.25,WUHU216HW,2013-12-07 03:36:00,
2013-12-06 22:41:00,32.6,24.2,30.06,West,270,0.0,0.9,71,0.00,,,0.25,WUHU216HW,2013-12-07 03:41:00,
2013-12-06 22:46:00,32.6,24.2,30.05,NW,315,0.0,0.9,71,0.00,,,0.25,WUHU216HW,2013-12-07 03:46:00,
2013-12-06 22:51:00,32.4,24.0,30.06,NW,315,0.4,0.9,71,0.00,,,0.25,WUHU216HW,2013-12-07 03:51:00,
2013-12-06 22:56:00,32.2,24.2,30.06,WNW,293,0.4,2.0,72,0.00,,,0.25,WUHU216HW,2013-12-07 03:56:00,
2013-12-06 23:01:00,32.2,24.2,30.06,WSW,248,0.9,2.0,72,0.00,,,0.25,WUHU216HW,2013-12-07 04:01:00,
2013-12-06 23:06:00,32.4,24.0,30.07,WSW,248,2.7,4.7,71,0.00,,,0.25,WUHU216HW,2013-12-07 04:06:00,
2013-12-06 23:11:00,32.4,23.8,30.07,NW,315,1.8,4.7,70,0.00,,,0.25,WUHU216HW,2013-12-07 04:11:00,
2013-12-06 23:16:00,32.6,23.9,30.07,NW,315,4.9,4.9,70,0.00,,,0.25,WUHU216HW,2013-12-07 04:16:00,
2013-12-06 23:21:00,32.8,24.0,30.07,NW,315,1.1,4.9,70,0.00,,,0.25,WUHU216HW,2013-12-07 04:21:00,
2013-12-06 23:26:00,32.8,24.0,30.06,SSW,203,0.2,3.4,70,0.00,,,0.25,WUHU216HW,2013-12-07 04:26:00,
2013-12-06 23:31:00,32.8,23.7,30.07,WNW,293,2.0,2.5,69,0.00,,,0.25,WUHU216HW,2013-12-07 04:31:00,
2013-12-06 23:36:00,32.8,23.7,30.06,North,0,0.4,2.5,69,0.00,,,0.25,WUHU216HW,2013-12-07 04:36:00,
2013-12-06 23:41:00,32.8,24.0,30.06,WSW,248,0.7,2.9,70,0.00,,,0.25,WUHU216HW,2013-12-07 04:41:00,
2013-12-06 23:46:00,32.8,24.0,30.05,North,0,0.4,2.9,70,0.00,,,0.25,WUHU216HW,2013-12-07 04:46:00,
2013-12-06 23:51:00,32.8,24.0,30.05,WNW,293,0.4,1.8,70,0.00,,,0.25,WUHU216HW,2013-12-07 04:51:00,
2013-12-06 23:56:00,32.8,23.7,30.05,West,270,0.0,1.3,69,0.00,,,0.25,WUHU216HW,2013-12-07 04:56:00,